This is the latest recevied weather packets stored in our database for station/object IR1ZYZ-3. If no packets are shown the sender has not sent any weather packets the latest 10 day(s).
| Time | Temp. | Humidity | Pressure | Rain* | Wind** | Luminosity | Snow |
|---|---|---|---|---|---|---|---|
| 1788096233 | 36.11° C | 50% | 1014.7 hPa | - | - | - | - |
| 1788095628 | 35.56° C | 47% | 1014.8 hPa | - | - | - | - |
| 1788095023 | 36.11° C | 47% | 1014.8 hPa | - | - | - | - |
| 1788094417 | 35.56° C | 48% | 1014.9 hPa | - | - | - | - |
| 1788093812 | 37.22° C | 46% | 1014.8 hPa | - | - | - | - |
| 1788093207 | 35° C | 47% | 1014.9 hPa | - | - | - | - |
| 1788092600 | 35° C | 48% | 1015.1 hPa | - | - | - | - |
| 1788091995 | 35.56° C | - | - | - | - | - | - |
| 1788091995 | 35.56° C | 46% | 1014.9 hPa | - | - | - | - |
| 1788091391 | 36.11° C | 45% | 1014.9 hPa | - | - | - | - |
| 1788090787 | 35° C | 46% | 1015 hPa | - | - | - | - |
| 1788090182 | 33.89° C | 48% | 1015 hPa | - | - | - | - |
| 1788089577 | 34.44° C | 48% | 1015 hPa | - | - | - | - |
| 1788088972 | 34.44° C | 48% | 1015.1 hPa | - | - | - | - |
| 1788088368 | 34.44° C | 49% | 1015 hPa | - | - | - | - |
| 1788087763 | 34.44° C | 49% | 1015.1 hPa | - | - | - | - |
| 1788087158 | 34.44° C | 51% | 1015.1 hPa | - | - | - | - |
| 1788086554 | 33.33° C | 51% | 1015.2 hPa | - | - | - | - |
| 1788085949 | 33.89° C | 52% | 1015.2 hPa | - | - | - | - |
| 1788085344 | 33.89° C | 54% | 1015.2 hPa | - | - | - | - |
| 1788084748 | 32.22° C | 55% | 1015.5 hPa | - | - | - | - |
| 1788084740 | 32.22° C | 55% | 1015.5 hPa | - | - | - | - |
| 1788084136 | 32.78° C | 56% | 1015.4 hPa | - | - | - | - |
| 1788083531 | 32.22° C | 56% | 1015.6 hPa | - | - | - | - |
| 1788082926 | 33.89° C | 52% | 1015.5 hPa | - | - | - | - |
* Rain since midnight (hover to see other rain measurements)
** Current wind speed in m/s (hover to see current wind gust speed)